Historyczne dane pomiarowe

Dodano dane terminowe – wersja testowa.

Dane z okresu 1951-2019

Wersja bazy: 1.34 [2019-03-16, lista zmian], aktualizacja planowana na 2019-04-15

Dane meteo z obszaru Polski uzyskane na podstawie danych udostępnionych przez Instytut Meteorologii i Gospodarki Wodnej – Państwowy Instytut Badawczy.

 

Wybierz Datę:    

       

TemperaturaWilgotnośćWiatrCiśnienieOpadyŚniegCzas trwania zjawisk
 Stacja t tx tn tng RH VA  wxwx mslp ppp RRR   cm mm wxwxwxwxwxwxwx
1977-10-10 13.0 23.1 5.9- 74.3- 3.7 0.0---- 5.6------------
1977-10-09 14.0 22.2 9.0- 68.5- 0.0 1.7---- 0.0------------
1977-10-08 17.1 24.0 9.0- 60.3- 0.0 4.7---- 0.0------------
1977-10-07 15.0 23.0 11.4- 74.3- 0.0 1.7---- 0.0------------
1977-10-06 15.3 20.8 10.8- 59.8- 0.3 5.0---- 0.0------------
1977-10-05 12.2 16.2 7.7- 60.0- 5.0 4.7---- 0.0------------
1977-10-04 8.6 11.9 5.9- 69.5- 6.7 4.7---- 0.0------------
1977-10-03 6.6 9.3 5.5- 81.3- 7.0 1.0---- 7.5------------
1977-10-02 8.6 11.8 7.2- 61.5- 4.7 3.7---- 3.4------------
1977-10-01 12.5 16.6 9.2- 61.0- 8.0 5.7---- 8.3------------
1977-09-30 11.8 15.7 9.7- 60.5- 6.0 7.7---- 0.0------------
1977-09-29 8.9 12.8 2.4- 38.5- 7.0 9.0---- 0.0------------
1977-09-28 4.6 11.3 -0.9- 75.8- 1.7 1.3---- 0.0------------
1977-09-27 4.8 10.0 0.9- 71.5- 1.7 1.7---- 0.0------------
1977-09-26 6.2 10.5 1.4- 77.0- 3.7 2.0---- 0.0------------
1977-09-25 5.4 10.6 0.1- 78.8- 4.3 2.0---- 0.0------------
1977-09-24 9.2 12.0 7.3- 75.0- 2.7 2.0---- 0.0------------
1977-09-23 9.6 11.2 8.2- 89.0- 8.0 0.3---- 0.6------------
1977-09-22 8.5 9.7 7.4- 84.0- 8.0 1.0---- 25.4------------
1977-09-21 8.9 9.8 7.3- 88.8- 8.0 2.3---- 37.2------------
1977-09-20 8.3 9.4 6.5- 88.0- 8.0 1.7---- 0.1------------
1977-09-19 8.0 8.6 6.7- 89.3- 8.0 2.7---- 0.2------------
1977-09-18 6.0 9.3 2.4- 84.3- 7.3 2.7---- 11.6------------
1977-09-17 7.6 11.8 4.2- 70.5- 4.3 0.7---- 0.0------------
1977-09-16 8.3 12.7 5.8- 69.8- 6.3 4.7---- 3.4------------
1977-09-15 12.8 14.2 11.3- 64.5- 7.7 1.7---- 12.7------------
1977-09-14 9.0 13.7 2.1- 66.8- 2.7 4.3---- 0.0------------
1977-09-13 11.7 19.0 8.3- 61.8- 6.0 2.0---- 0.0------------
1977-09-12 17.3 22.1 13.1- 71.8- 5.3 4.3---- 0.2------------
1977-09-11 11.0 14.0 7.6- 85.5- 8.0 3.3---- 4.0------------
1977-09-10 10.4 12.4 8.5- 68.3- 7.0 2.7---- 1.2------------
1977-09-09 13.3 18.5 10.4- 83.5- 8.0 3.3---- 28.7------------
1977-09-08 16.3 18.2 14.8- 90.5- 8.0 0.7---- 2.5------------
1977-09-07 17.7 24.0 12.6- 82.0- 5.7 0.7---- 1.3------------
1977-09-06 16.2 19.7 13.8- 93.3- 8.0 2.3---- 0.0------------
1977-09-05 16.9 20.6 14.3- 87.8- 8.0 2.0---- 0.0------------
1977-09-04 18.6 23.6 12.6- 75.0- 4.0 1.0---- 7.7------------
1977-09-03 17.1 25.8 11.8- 80.5- 3.7 1.3---- 1.6------------
1977-09-02 18.6 23.6 14.9- 73.0- 6.3 0.3---- 0.0------------
1977-09-01 20.0 25.0 15.3- 72.0- 5.0 2.7---- 0.0------------
1977-08-31 19.4 25.7 12.9- 78.0- 2.3 1.3---- 0.0------------
1977-08-30 17.8 26.9 9.9- 80.8- 0.0 0.0---- 0.0------------
1977-08-29 15.6 21.2 11.9- 80.5- 0.7 1.3---- 0.0------------
1977-08-28 16.2 21.2 11.9- 86.3- 7.3 1.0---- 0.0------------
1977-08-27 17.3 22.7 11.2- 67.8- 3.7 2.7---- 0.0------------
1977-08-26 14.3 21.8 6.5- 75.3- 0.7 1.0---- 0.0------------
1977-08-25 12.7 17.8 7.5- 75.3- 1.7 1.0---- 0.0------------
1977-08-24 12.8 14.9 11.5- 78.0- 7.7 2.7---- 0.0------------
1977-08-23 12.5 16.5 11.5- 88.5- 8.0 3.0---- 16.1------------
1977-08-22 15.8 18.2 14.4- 86.5- 7.7 2.7---- 9.3------------
1977-08-21 15.9 20.5 11.7- 85.8- 7.0 0.0---- 13.2------------
1977-08-20 14.8 18.2 12.0- 78.0- 4.3 0.0---- 10.1------------
1977-08-19 16.5 19.5 15.2- 88.8- 8.0 1.7---- 25.6------------
1977-08-18 17.0 23.2 9.4- 74.5- 6.7 0.7---- 9.4------------
1977-08-17 13.3 18.9 9.2- 77.5- 4.3 1.3---- 0.0------------
1977-08-16 12.9 16.1 11.7- 86.0- 6.7 0.7---- 0.0------------
1977-08-15 15.8 17.8 14.8- 83.5- 8.0 2.7---- 5.6------------
1977-08-14 17.2 18.9 14.8- 83.3- 7.7 0.7---- 3.0------------
1977-08-13 17.4 23.2 12.7- 82.8- 6.0 1.7---- 9.8------------
1977-08-12 16.8 21.0 10.2- 81.5- 5.7 1.3---- 0.0------------
1115.2 ms

 

Źródłem pochodzenia danych jest Instytut Meteorologii i Gospodarki Wodnej – Państwowy Instytut Badawczy. Dane Instytutu Meteorologii i Gospodarki Wodnej – Państwowego Instytutu Badawczego zostały przetworzone.

Dane źródłowe można odnaleźć na stronie https://dane.imgw.pl